Time;durP1;ratioP1;P1;durP2;ratioP2;P2;SDS_P1;SDS_P2;PMS_P1;PMS_P2;Temp;Humidity;BMP_temperature;BMP_pressure;BME280_temperature;BME280_humidity;BME280_pressure;Samples;Min_cycle;Max_cycle;Signal;HPM_P1;HPM_P2
2022/09/30 00:02:20;;;;;;;0.00;0.00;;;;;;;;;;5038024;28;20638;-70
2022/09/30 00:04:48;;;;;;;0.10;0.10;;;;;;;;;;5039221;28;20652;-71
2022/09/30 00:07:16;;;;;;;0.00;0.00;;;;;;;;;;5036412;28;20731;-70
2022/09/30 00:09:43;;;;;;;0.10;0.10;;;;;;;;;;5039432;28;20597;-72
2022/09/30 00:12:11;;;;;;;0.10;0.10;;;;;;;;;;5036970;28;20265;-73
2022/09/30 00:14:38;;;;;;;0.10;0.10;;;;;;;;;;5037587;28;20780;-70
2022/09/30 00:17:07;;;;;;;0.00;0.00;;;;;;;;;;5036463;28;20995;-71
2022/09/30 00:19:35;;;;;;;0.10;0.10;;;;;;;;;;5037229;28;20662;-71
2022/09/30 00:22:03;;;;;;;0.00;0.00;;;;;;;;;;5037993;28;20204;-70
2022/09/30 00:24:30;;;;;;;0.10;0.10;;;;;;;;;;5033846;28;20762;-70
2022/09/30 00:26:58;;;;;;;0.00;0.00;;;;;;;;;;5036740;28;20630;-72
2022/09/30 00:29:25;;;;;;;0.00;0.00;;;;;;;;;;5035630;28;20641;-71
2022/09/30 00:31:53;;;;;;;0.10;0.10;;;;;;;;;;5036034;28;20713;-71
2022/09/30 00:34:21;;;;;;;0.10;0.10;;;;;;;;;;5037061;28;21054;-70
2022/09/30 00:36:49;;;;;;;0.00;0.00;;;;;;;;;;5046037;28;20629;-70
2022/09/30 00:39:18;;;;;;;0.10;0.10;;;;;;;;;;5033828;28;20684;-72
2022/09/30 00:41:48;;;;;;;0.10;0.10;;;;;;;;;;5042838;28;20586;-71
2022/09/30 00:44:34;;;;;;;0.10;0.10;;;;;;;;;;5053953;28;20665;-68
2022/09/30 00:47:01;;;;;;;0.10;0.10;;;;;;;;;;5038619;28;20629;-71
2022/09/30 00:49:30;;;;;;;0.10;0.10;;;;;;;;;;5039193;28;20629;-71
2022/09/30 00:51:59;;;;;;;0.10;0.10;;;;;;;;;;5039635;28;20635;-70
2022/09/30 00:54:29;;;;;;;0.10;0.10;;;;;;;;;;5035451;28;20714;-70
2022/09/30 00:56:58;;;;;;;0.10;0.10;;;;;;;;;;5038629;28;20610;-69
2022/09/30 00:59:27;;;;;;;0.10;0.10;;;;;;;;;;5038214;28;20625;-70
2022/09/30 01:01:55;;;;;;;0.00;0.00;;;;;;;;;;5038896;28;21285;-71
2022/09/30 01:04:24;;;;;;;0.10;0.10;;;;;;;;;;5037932;28;21222;-70
2022/09/30 01:06:54;;;;;;;0.10;0.10;;;;;;;;;;5038408;28;20684;-71
2022/09/30 01:09:22;;;;;;;0.00;0.00;;;;;;;;;;5035065;28;20629;-69
2022/09/30 01:11:49;;;;;;;0.00;0.00;;;;;;;;;;5034717;28;20637;-70
2022/09/30 01:14:18;;;;;;;0.10;0.10;;;;;;;;;;5039188;28;20642;-70
2022/09/30 01:16:50;;;;;;;0.10;0.10;;;;;;;;;;5036058;28;20630;-70
2022/09/30 01:19:34;;;;;;;0.10;0.10;;;;;;;;;;5037059;28;20679;-70
2022/09/30 01:22:18;;;;;;;0.10;0.10;;;;;;;;;;5036478;28;20677;-72
2022/09/30 01:25:04;;;;;;;0.10;0.10;;;;;;;;;;5035411;28;20729;-70
2022/09/30 01:27:42;;;;;;;0.00;0.00;;;;;;;;;;5033730;28;20684;-72
2022/09/30 01:30:19;;;;;;;0.10;0.10;;;;;;;;;;5038130;28;20632;-71
2022/09/30 01:32:59;;;;;;;0.10;0.10;;;;;;;;;;5038655;28;20613;-70
2022/09/30 01:35:31;;;;;;;0.10;0.10;;;;;;;;;;5037552;28;20676;-71
2022/09/30 01:38:04;;;;;;;0.00;0.00;;;;;;;;;;5036704;28;20720;-70
2022/09/30 01:40:36;;;;;;;0.10;0.10;;;;;;;;;;5035362;28;20744;-70
2022/09/30 01:43:06;;;;;;;0.10;0.10;;;;;;;;;;5034860;28;20629;-71
2022/09/30 01:45:36;;;;;;;0.10;0.10;;;;;;;;;;5033301;28;20653;-71
2022/09/30 01:48:10;;;;;;;0.10;0.10;;;;;;;;;;5039352;28;20617;-71
2022/09/30 01:50:43;;;;;;;0.10;0.10;;;;;;;;;;5042389;28;20628;-71
2022/09/30 01:53:15;;;;;;;0.00;0.00;;;;;;;;;;5035558;28;20626;-71
2022/09/30 01:55:46;;;;;;;0.07;0.07;;;;;;;;;;5034247;28;20752;-70
2022/09/30 01:58:18;;;;;;;0.10;0.10;;;;;;;;;;5039685;28;20621;-71
2022/09/30 02:00:49;;;;;;;0.00;0.00;;;;;;;;;;5036507;28;20665;-70
2022/09/30 02:03:20;;;;;;;0.10;0.10;;;;;;;;;;5042250;28;20626;-71
2022/09/30 02:05:52;;;;;;;0.10;0.10;;;;;;;;;;5034448;28;20658;-72
2022/09/30 02:08:22;;;;;;;0.00;0.00;;;;;;;;;;5038074;28;20658;-71
2022/09/30 02:10:55;;;;;;;0.10;0.10;;;;;;;;;;5036540;28;20971;-70
2022/09/30 02:13:29;;;;;;;0.10;0.10;;;8.80;99.90;;;;;;5038835;28;20690;-69
2022/09/30 02:16:01;;;;;;;0.10;0.10;;;7.90;99.90;;;;;;5055307;28;20752;-72
2022/09/30 02:18:38;;;;;;;0.10;0.10;;;7.90;99.90;;;;;;5040272;28;20710;-70
2022/09/30 02:21:07;;;;;;;0.10;0.10;;;7.90;99.90;;;;;;5049562;28;20657;-70
2022/09/30 02:23:40;;;;;;;0.10;0.10;;;7.90;99.90;;;;;;5039159;28;20686;-70
2022/09/30 02:26:13;;;;;;;0.10;0.10;;;7.80;99.90;;;;;;5038182;28;20723;-69
2022/09/30 02:28:45;;;;;;;0.10;0.10;;;7.80;99.90;;;;;;5042185;28;20736;-71
2022/09/30 02:31:16;;;;;;;0.10;0.10;;;7.80;99.90;;;;;;5049188;28;20607;-70
2022/09/30 02:33:51;;;;;;;0.10;0.10;;;7.80;99.90;;;;;;5038820;28;20698;-71
2022/09/30 02:36:23;;;;;;;0.10;0.10;;;7.80;99.90;;;;;;5039672;28;20743;-70
2022/09/30 02:38:57;;;;;;;0.10;0.10;;;7.80;99.90;;;;;;5039245;28;20719;-71
2022/09/30 02:41:28;;;;;;;0.10;0.10;;;7.80;99.90;;;;;;5037347;28;20654;-71
2022/09/30 02:43:56;;;;;;;0.10;0.10;;;7.70;99.90;;;;;;5041294;28;20629;-71
2022/09/30 02:46:28;;;;;;;0.10;0.10;;;7.70;99.90;;;;;;5039726;28;20631;-71
2022/09/30 02:49:04;;;;;;;0.10;0.10;;;7.70;99.90;;;;;;5038871;28;20605;-70
2022/09/30 02:51:40;;;;;;;0.10;0.10;;;7.70;99.90;;;;;;5037841;28;20644;-71
2022/09/30 02:54:14;;;;;;;0.00;0.00;;;7.60;99.90;;;;;;5040439;28;20617;-71
2022/09/30 02:56:50;;;;;;;0.00;0.00;;;7.60;99.90;;;;;;5042888;28;20633;-70
2022/09/30 02:59:18;;;;;;;0.10;0.10;;;7.60;99.90;;;;;;5039429;28;20672;-70
2022/09/30 03:01:46;;;;;;;0.10;0.10;;;7.50;99.90;;;;;;5042569;28;20768;-71
2022/09/30 03:04:18;;;;;;;0.10;0.10;;;7.50;99.90;;;;;;5039908;28;20606;-73
2022/09/30 03:06:45;;;;;;;0.10;0.10;;;7.50;99.90;;;;;;5040618;28;20614;-70
2022/09/30 03:09:12;;;;;;;0.00;0.00;;;7.50;99.90;;;;;;5034649;28;20661;-72
2022/09/30 03:11:41;;;;;;;0.10;0.10;;;7.50;99.90;;;;;;5040183;28;20666;-72
2022/09/30 03:14:40;;;;;;;0.10;0.10;;;7.50;99.90;;;;;;5038904;28;20626;-72
2022/09/30 03:17:46;;;;;;;0.10;0.10;;;7.50;99.90;;;;;;5039576;28;20729;-69
2022/09/30 03:20:23;;;;;;;0.10;0.10;;;7.50;99.90;;;;;;5053503;28;21242;-71
2022/09/30 03:22:55;;;;;;;0.10;0.10;;;;;;;;;;5038902;28;20673;-72
2022/09/30 03:25:27;;;;;;;0.10;0.10;;;;;;;;;;5037969;28;20692;-71
2022/09/30 03:28:01;;;;;;;0.10;0.10;;;;;;;;;;5041857;28;20638;-70
2022/09/30 03:30:31;;;;;;;0.00;0.00;;;;;;;;;;5038040;28;20629;-69
2022/09/30 03:33:04;;;;;;;0.10;0.10;;;;;;;;;;5038916;28;20642;-70
2022/09/30 03:35:37;;;;;;;0.00;0.00;;;;;;;;;;5044040;28;20665;-72
2022/09/30 03:38:11;;;;;;;0.10;0.10;;;;;;;;;;5037100;28;20622;-71
2022/09/30 03:40:42;;;;;;;0.10;0.10;;;;;;;;;;5039183;28;20664;-70
2022/09/30 03:43:13;;;;;;;0.10;0.10;;;;;;;;;;5039055;28;20724;-71
2022/09/30 03:45:47;;;;;;;0.10;0.10;;;;;;;;;;5038140;28;20660;-70
2022/09/30 03:48:15;;;;;;;0.00;0.00;;;;;;;;;;5038480;28;20638;-69
2022/09/30 03:50:45;;;;;;;0.10;0.10;;;;;;;;;;5040967;28;20605;-71
2022/09/30 03:53:13;;;;;;;0.00;0.00;;;;;;;;;;5042534;28;20823;-72
2022/09/30 03:55:46;;;;;;;0.10;0.10;;;;;;;;;;5043352;28;20767;-71
2022/09/30 03:58:14;;;;;;;0.00;0.00;;;;;;;;;;5036307;28;20633;-71
2022/09/30 04:00:46;;;;;;;0.10;0.10;;;;;;;;;;5040336;28;20683;-72
2022/09/30 04:03:13;;;;;;;0.10;0.10;;;;;;;;;;5039900;28;20650;-72
2022/09/30 04:05:41;;;;;;;0.10;0.10;;;;;;;;;;5036712;28;20657;-70
2022/09/30 04:08:10;;;;;;;0.10;0.10;;;;;;;;;;5041372;28;20621;-69
2022/09/30 04:10:39;;;;;;;0.10;0.10;;;;;;;;;;5041277;28;20633;-71
2022/09/30 04:13:08;;;;;;;0.10;0.10;;;;;;;;;;5038110;28;21286;-70
2022/09/30 04:15:35;;;;;;;0.00;0.00;;;;;;;;;;5038348;28;20765;-70
2022/09/30 04:18:03;;;;;;;0.10;0.10;;;;;;;;;;5036825;28;20630;-69
2022/09/30 04:20:31;;;;;;;0.10;0.10;;;;;;;;;;5036593;28;20637;-69
2022/09/30 04:22:58;;;;;;;0.10;0.10;;;;;;;;;;5036380;28;20627;-70
2022/09/30 04:25:27;;;;;;;0.10;0.10;;;;;;;;;;5032935;28;20661;-70
2022/09/30 04:27:55;;;;;;;0.10;0.10;;;;;;;;;;5038421;28;20613;-73
2022/09/30 04:30:23;;;;;;;0.10;0.10;;;;;;;;;;5037250;28;20647;-71
2022/09/30 04:32:50;;;;;;;0.07;0.07;;;;;;;;;;5036958;28;20622;-72
2022/09/30 04:35:18;;;;;;;0.10;0.10;;;;;;;;;;5035536;28;20654;-73
2022/09/30 04:37:46;;;;;;;0.00;0.00;;;;;;;;;;5034569;28;20625;-72
2022/09/30 04:40:16;;;;;;;0.10;0.10;;;;;;;;;;5034793;28;20602;-70
2022/09/30 04:42:46;;;;;;;0.10;0.10;;;;;;;;;;5034647;28;20688;-71
2022/09/30 04:45:15;;;;;;;0.10;0.10;;;;;;;;;;5038309;28;20653;-69
2022/09/30 04:47:44;;;;;;;0.10;0.10;;;;;;;;;;5037418;28;20630;-71
2022/09/30 04:50:12;;;;;;;0.10;0.10;;;;;;;;;;5034616;28;20652;-72
2022/09/30 04:52:43;;;;;;;0.10;0.10;;;;;;;;;;5044327;28;21158;-71
2022/09/30 04:55:11;;;;;;;0.10;0.10;;;;;;;;;;5038363;28;20708;-70
2022/09/30 04:57:40;;;;;;;0.10;0.10;;;;;;;;;;5037288;28;20618;-72
2022/09/30 05:00:09;;;;;;;0.10;0.10;;;;;;;;;;5038454;28;20614;-70
2022/09/30 05:02:37;;;;;;;0.00;0.00;;;;;;;;;;5032254;28;20720;-71
2022/09/30 05:05:05;;;;;;;0.10;0.10;;;;;;;;;;5036295;28;21076;-70
2022/09/30 05:07:32;;;;;;;0.10;0.10;;;;;;;;;;5036513;28;20626;-70
2022/09/30 05:10:00;;;;;;;0.10;0.10;;;;;;;;;;5038953;28;20702;-70
2022/09/30 05:12:28;;;;;;;0.07;0.07;;;;;;;;;;5033156;28;20654;-70
2022/09/30 05:14:56;;;;;;;0.10;0.10;;;;;;;;;;5037333;28;20664;-69
2022/09/30 05:17:24;;;;;;;0.10;0.10;;;;;;;;;;5035271;28;20626;-71
2022/09/30 05:19:52;;;;;;;0.10;0.10;;;;;;;;;;5042038;28;21266;-72
2022/09/30 05:22:19;;;;;;;0.00;0.00;;;;;;;;;;5033566;28;20749;-69
2022/09/30 05:24:47;;;;;;;0.03;0.03;;;;;;;;;;5035045;28;20667;-70
2022/09/30 05:27:14;;;;;;;0.10;0.10;;;;;;;;;;5037263;28;20616;-71
2022/09/30 05:29:42;;;;;;;0.10;0.10;;;;;;;;;;5035345;28;20630;-71
2022/09/30 05:32:09;;;;;;;0.10;0.10;;;;;;;;;;5036369;28;21010;-74
2022/09/30 05:34:38;;;;;;;0.10;0.10;;;;;;;;;;5033645;28;20728;-69
2022/09/30 05:37:05;;;;;;;0.00;0.00;;;;;;;;;;5038577;28;20687;-71
2022/09/30 05:39:33;;;;;;;0.10;0.10;;;;;;;;;;5031958;28;20626;-72
2022/09/30 05:42:00;;;;;;;0.10;0.10;;;;;;;;;;5039355;28;20653;-70
2022/09/30 05:44:28;;;;;;;0.10;0.10;;;;;;;;;;5038775;28;20661;-71
2022/09/30 05:46:55;;;;;;;0.10;0.10;;;;;;;;;;5039842;28;20635;-71
2022/09/30 05:49:23;;;;;;;0.10;0.10;;;;;;;;;;5035817;28;20615;-73
2022/09/30 05:51:51;;;;;;;0.10;0.10;;;;;;;;;;5038340;28;20890;-70
2022/09/30 05:54:19;;;;;;;0.10;0.10;;;;;;;;;;5041006;28;20661;-71
2022/09/30 05:56:46;;;;;;;0.10;0.10;;;;;;;;;;5036931;28;20994;-71
2022/09/30 05:59:14;;;;;;;0.10;0.10;;;;;;;;;;5038780;28;20644;-70
2022/09/30 06:01:41;;;;;;;0.10;0.10;;;;;;;;;;5039781;28;20646;-70
2022/09/30 06:04:09;;;;;;;0.00;0.00;;;;;;;;;;5036280;28;20626;-71
2022/09/30 06:06:37;;;;;;;0.10;0.10;;;;;;;;;;5033412;28;21279;-69
2022/09/30 06:09:06;;;;;;;0.00;0.00;;;;;;;;;;5031454;28;20929;-70
2022/09/30 06:11:34;;;;;;;0.10;0.10;;;;;;;;;;5034531;28;20627;-70
2022/09/30 06:14:01;;;;;;;0.10;0.10;;;;;;;;;;5036152;28;20732;-71
2022/09/30 06:16:30;;;;;;;0.10;0.10;;;;;;;;;;5033265;28;20631;-70
2022/09/30 06:18:58;;;;;;;0.10;0.10;;;;;;;;;;5033409;28;20611;-72
2022/09/30 06:21:27;;;;;;;0.10;0.10;;;;;;;;;;5034125;28;20674;-70
2022/09/30 06:23:55;;;;;;;0.10;0.10;;;;;;;;;;5034618;28;20613;-70
2022/09/30 06:26:25;;;;;;;0.10;0.10;;;;;;;;;;5035350;28;20609;-72
2022/09/30 06:28:52;;;;;;;0.10;0.10;;;;;;;;;;5033428;28;20642;-70
2022/09/30 06:31:20;;;;;;;0.10;0.10;;;;;;;;;;5039081;28;20733;-70
2022/09/30 06:33:47;;;;;;;0.10;0.10;;;;;;;;;;5035724;28;20732;-70
2022/09/30 06:36:15;;;;;;;0.10;0.10;;;;;;;;;;5032093;28;20682;-70
2022/09/30 06:38:44;;;;;;;0.10;0.10;;;;;;;;;;5032058;28;20712;-70
2022/09/30 06:41:13;;;;;;;0.10;0.10;;;;;;;;;;5034722;28;21167;-70
2022/09/30 06:43:42;;;;;;;0.00;0.00;;;;;;;;;;5036667;28;20619;-70
2022/09/30 06:46:11;;;;;;;0.10;0.10;;;;;;;;;;5035744;28;20658;-69
2022/09/30 06:48:39;;;;;;;0.10;0.10;;;;;;;;;;5031066;28;20638;-70
2022/09/30 06:51:09;;;;;;;0.10;0.10;;;;;;;;;;5034737;28;20637;-69
2022/09/30 06:53:38;;;;;;;0.10;0.10;;;;;;;;;;5035460;28;20640;-70
2022/09/30 06:56:05;;;;;;;0.10;0.10;;;;;;;;;;5030634;28;20708;-70
2022/09/30 06:58:33;;;;;;;0.10;0.10;;;;;;;;;;5032582;28;20617;-70
2022/09/30 07:01:03;;;;;;;0.00;0.00;;;;;;;;;;5042344;28;21218;-69
2022/09/30 07:03:31;;;;;;;0.10;0.10;;;;;;;;;;5037402;28;20683;-71
2022/09/30 07:06:25;;;;;;;0.10;0.10;;;;;;;;;;5034444;28;20715;-70
2022/09/30 07:08:53;;;;;;;0.10;0.10;;;;;;;;;;5045086;28;20714;-69
2022/09/30 07:11:20;;;;;;;0.10;0.10;;;;;;;;;;5037440;28;20712;-70
2022/09/30 07:13:48;;;;;;;0.00;0.00;;;;;;;;;;5033457;28;20654;-70
2022/09/30 07:16:19;;;;;;;0.10;0.10;;;;;;;;;;5036423;28;20642;-69
2022/09/30 07:18:47;;;;;;;0.07;0.07;;;;;;;;;;5040270;28;21232;-68
2022/09/30 07:21:15;;;;;;;0.10;0.10;;;;;;;;;;5035286;28;20633;-70
2022/09/30 07:23:46;;;;;;;0.10;0.10;;;11.00;99.90;;;;;;5035120;28;20659;-70
2022/09/30 07:26:14;;;;;;;0.10;0.10;;;11.40;99.90;;;;;;5038258;28;20658;-70
2022/09/30 07:28:42;;;;;;;0.10;0.10;;;11.60;99.90;;;;;;5031400;28;20728;-71
2022/09/30 07:31:11;;;;;;;0.00;0.00;;;11.80;99.90;;;;;;5035556;28;20741;-68
2022/09/30 07:33:40;;;;;;;0.00;0.00;;;12.00;99.90;;;;;;5034364;28;20637;-71
2022/09/30 07:36:09;;;;;;;0.10;0.10;;;12.10;99.90;;;;;;5037009;28;20653;-70
2022/09/30 07:38:39;;;;;;;0.00;0.00;;;12.40;99.90;;;;;;5038096;28;20617;-70
2022/09/30 07:41:08;;;;;;;0.00;0.00;;;12.60;99.90;;;;;;5043732;28;20625;-70
2022/09/30 07:43:37;;;;;;;0.00;0.00;;;12.70;99.90;;;;;;5035411;28;20665;-70
2022/09/30 07:46:07;;;;;;;0.00;0.00;;;13.00;99.90;;;;;;5037231;28;20249;-69
2022/09/30 07:51:22;;;;;;;0.00;0.00;;;13.40;99.90;;;;;;5032035;28;20196;-71
2022/09/30 07:53:51;;;;;;;0.00;0.00;;;;;;;;;;5035164;28;20261;-70
2022/09/30 07:56:19;;;;;;;0.00;0.00;;;;;;;;;;5038814;28;20230;-71
2022/09/30 07:58:47;;;;;;;0.10;0.10;;;;;;;;;;5035215;28;20254;-69
2022/09/30 08:01:15;;;;;;;0.10;0.10;;;;;;;;;;5034025;28;20224;-69
2022/09/30 08:03:44;;;;;;;0.00;0.00;;;;;;;;;;5033859;28;20239;-70
2022/09/30 08:06:12;;;;;;;0.10;0.10;;;;;;;;;;5040273;28;20294;-70
2022/09/30 08:08:42;;;;;;;0.10;0.10;;;;;;;;;;5044568;28;20207;-71
2022/09/30 08:11:10;;;;;;;0.10;0.10;;;;;;;;;;5034442;28;20720;-71
2022/09/30 08:13:38;;;;;;;0.10;0.10;;;;;;;;;;5052963;28;20234;-72
2022/09/30 08:16:07;;;;;;;0.00;0.00;;;;;;;;;;5047977;28;20246;-72
2022/09/30 08:18:34;;;;;;;0.00;0.00;;;;;;;;;;5039667;28;20202;-72
2022/09/30 08:21:03;;;;;;;0.10;0.10;;;;;;;;;;5042520;28;20291;-73
2022/09/30 08:23:30;;;;;;;0.00;0.00;;;;;;;;;;5037172;28;20227;-71
2022/09/30 08:26:02;;;;;;;0.03;0.03;;;;;;;;;;5040762;28;20227;-72
2022/09/30 08:28:31;;;;;;;0.00;0.00;;;;;;;;;;5038945;28;20210;-69
2022/09/30 08:31:04;;;;;;;0.10;0.10;;;;;;;;;;5039547;28;20676;-70
2022/09/30 08:33:35;;;;;;;0.10;0.10;;;;;;;;;;5038677;28;20290;-71
2022/09/30 08:36:03;;;;;;;0.00;0.00;;;;;;;;;;5044583;28;20227;-71
2022/09/30 08:38:31;;;;;;;0.00;0.00;;;;;;;;;;5044127;28;20204;-71
2022/09/30 08:41:03;;;;;;;0.00;0.00;;;;;;;;;;5034313;28;20227;-71
2022/09/30 08:43:36;;;;;;;0.00;0.00;;;;;;;;;;5039724;28;20229;-69
2022/09/30 08:46:10;;;;;;;0.00;0.00;;;;;;;;;;5041665;28;20246;-71
2022/09/30 08:48:42;;;;;;;0.00;0.00;;;;;;;;;;5035388;28;20195;-71
2022/09/30 08:51:16;;;;;;;0.00;0.00;;;;;;;;;;5034894;28;20284;-69
2022/09/30 08:53:47;;;;;;;0.03;0.03;;;;;;;;;;5036985;28;20201;-68
2022/09/30 08:56:20;;;;;;;0.00;0.00;;;;;;;;;;5036827;28;20663;-68
2022/09/30 08:58:52;;;;;;;0.00;0.00;;;;;;;;;;5040883;28;20199;-69
2022/09/30 09:01:21;;;;;;;0.00;0.00;;;;;;;;;;5036148;28;20298;-70
2022/09/30 09:03:48;;;;;;;0.00;0.00;;;15.00;99.90;;;;;;5033153;28;20246;-69
2022/09/30 09:06:26;;;;;;;0.00;0.00;;;16.80;99.90;;;;;;5036813;28;20286;-69
2022/09/30 09:09:02;;;;;;;0.00;0.00;;;;;;;;;;5036846;28;20207;-70
2022/09/30 09:11:48;;;;;;;0.00;0.00;;;16.90;99.90;;;;;;5037147;28;20257;-68
2022/09/30 09:14:27;;;;;;;0.00;0.00;;;17.10;99.90;;;;;;5035241;28;20262;-71
2022/09/30 09:17:12;;;;;;;0.00;0.00;;;17.10;99.90;;;;;;5045240;28;20218;-71
2022/09/30 09:19:46;;;;;;;0.03;0.03;;;17.10;99.90;;;;;;5036027;28;20207;-69
2022/09/30 09:22:14;;;;;;;0.00;0.00;;;17.20;99.90;;;;;;5032635;28;20227;-70
2022/09/30 09:24:45;;;;;;;0.00;0.00;;;17.20;99.90;;;;;;5035861;28;20234;-70
2022/09/30 09:27:21;;;;;;;0.00;0.00;;;17.30;99.90;;;;;;5032859;28;20200;-70
2022/09/30 09:30:01;;;;;;;0.00;0.00;;;17.40;99.90;;;;;;5033997;28;20207;-70
2022/09/30 09:32:29;;;;;;;0.00;0.00;;;17.50;99.90;;;;;;5031518;28;20215;-71
2022/09/30 09:35:00;;;;;;;0.00;0.00;;;17.60;99.90;;;;;;5041288;28;20234;-69
2022/09/30 09:40:34;;;;;;;0.00;0.00;;;17.80;99.90;;;;;;5041274;28;20207;-70
2022/09/30 09:43:17;;;;;;;0.00;0.00;;;17.60;99.90;;;;;;5031773;28;20219;-70
2022/09/30 09:45:56;;;;;;;0.00;0.00;;;17.70;99.90;;;;;;5041535;28;20223;-70
2022/09/30 09:48:23;;;;;;;0.00;0.00;;;;;;;;;;5033341;28;20206;-70
2022/09/30 09:50:56;;;;;;;0.00;0.00;;;;;;;;;;5035365;28;20199;-70
2022/09/30 09:53:45;;;;;;;0.00;0.00;;;17.70;99.90;;;;;;5032007;28;20207;-70
2022/09/30 09:56:17;;;;;;;0.00;0.00;;;17.80;99.90;;;;;;5034447;28;20215;-71
2022/09/30 09:59:04;;;;;;;0.00;0.00;;;;;;;;;;5041734;28;20207;-71
2022/09/30 10:01:33;;;;;;;0.00;0.00;;;;;;;;;;5027199;28;20211;-69
2022/09/30 10:04:10;;;;;;;0.00;0.00;;;18.00;99.90;;;;;;5030146;28;20219;-71
2022/09/30 10:06:46;;;;;;;0.00;0.00;;;;;;;;;;5032268;28;20284;-70
2022/09/30 10:09:25;;;;;;;0.00;0.00;;;;;;;;;;5032531;28;20206;-68
2022/09/30 10:12:14;;;;;;;0.00;0.00;;;;;;;;;;5034454;28;20199;-70
2022/09/30 10:14:48;;;;;;;0.00;0.00;;;;;;;;;;5039161;28;20219;-70
2022/09/30 10:17:19;;;;;;;0.00;0.00;;;;;;;;;;5038123;28;20258;-70
2022/09/30 10:19:51;;;;;;;0.00;0.00;;;;;;;;;;5036545;28;20234;-71
2022/09/30 10:22:19;;;;;;;0.00;0.00;;;;;;;;;;5042867;28;20255;-71
2022/09/30 10:24:46;;;;;;;0.00;0.00;;;18.30;99.90;;;;;;5035464;28;20314;-70
2022/09/30 10:27:28;;;;;;;0.00;0.00;;;18.20;99.90;;;;;;5035817;28;20195;-68
2022/09/30 10:29:56;;;;;;;0.00;0.00;;;18.20;99.90;;;;;;5038175;28;20599;-71
2022/09/30 10:32:25;;;;;;;0.00;0.00;;;18.20;99.90;;;;;;5032450;28;20203;-69
2022/09/30 10:34:58;;;;;;;0.00;0.00;;;18.30;99.90;;;;;;5033867;28;20231;-71
2022/09/30 10:37:26;;;;;;;0.00;0.00;;;18.30;99.90;;;;;;5037282;28;20207;-69
2022/09/30 10:40:00;;;;;;;0.00;0.00;;;18.30;99.90;;;;;;5041487;28;20223;-71
2022/09/30 10:42:29;;;;;;;0.00;0.00;;;18.40;99.90;;;;;;5041230;28;20203;-72
2022/09/30 10:45:05;;;;;;;0.00;0.00;;;18.40;99.90;;;;;;5038757;28;20216;-72
2022/09/30 10:47:32;;;;;;;0.00;0.00;;;;;;;;;;5038027;28;20665;-71
2022/09/30 10:50:03;;;;;;;0.00;0.00;;;;;;;;;;5040193;28;20207;-70
2022/09/30 10:52:33;;;;;;;0.00;0.00;;;;;;;;;;5036490;28;20215;-69
2022/09/30 10:55:01;;;;;;;0.00;0.00;;;;;;;;;;5042086;28;20219;-70
2022/09/30 10:57:29;;;;;;;0.00;0.00;;;18.50;99.90;;;;;;5036400;28;20207;-71
2022/09/30 11:00:02;;;;;;;0.00;0.00;;;19.10;99.90;;;;;;5051682;28;20224;-70
2022/09/30 11:02:31;;;;;;;0.00;0.00;;;;;;;;;;5042671;28;20208;-69
2022/09/30 11:05:02;;;;;;;0.00;0.00;;;;;;;;;;5039719;28;20259;-70
2022/09/30 11:07:31;;;;;;;0.00;0.00;;;;;;;;;;5037664;28;20279;-73
2022/09/30 11:10:02;;;;;;;0.00;0.00;;;;;;;;;;5036108;28;20206;-69
2022/09/30 11:12:33;;;;;;;0.00;0.00;;;;;;;;;;5044196;28;20208;-73
2022/09/30 11:15:08;;;;;;;0.00;0.00;;;;;;;;;;5039644;28;20234;-71
2022/09/30 11:17:40;;;;;;;0.00;0.00;;;;;;;;;;5036143;28;20263;-71
2022/09/30 11:20:12;;;;;;;0.00;0.00;;;;;;;;;;5038119;28;21121;-70
2022/09/30 11:22:44;;;;;;;0.00;0.00;;;;;;;;;;5044401;28;20290;-70
2022/09/30 11:25:14;;;;;;;0.00;0.00;;;;;;;;;;5038049;28;20224;-70
2022/09/30 11:27:54;;;;;;;0.00;0.00;;;;;;;;;;5041821;28;20317;-70
2022/09/30 11:30:25;;;;;;;0.00;0.00;;;;;;;;;;5044455;28;20290;-70
2022/09/30 11:32:59;;;;;;;0.00;0.00;;;;;;;;;;5042344;28;20194;-70
2022/09/30 11:35:32;;;;;;;0.00;0.00;;;;;;;;;;5034678;28;20313;-70
2022/09/30 11:38:09;;;;;;;0.00;0.00;;;;;;;;;;5033739;28;20227;-70
2022/09/30 11:40:45;;;;;;;0.00;0.00;;;;;;;;;;5042587;28;20199;-71
2022/09/30 11:43:18;;;;;;;0.00;0.00;;;;;;;;;;5034477;28;20685;-70
2022/09/30 11:45:55;;;;;;;0.00;0.00;;;;;;;;;;5034170;28;20223;-68
2022/09/30 11:48:30;;;;;;;0.00;0.00;;;;;;;;;;5037376;28;20248;-69
2022/09/30 11:51:03;;;;;;;0.00;0.00;;;;;;;;;;5037796;28;20194;-67
2022/09/30 11:53:35;;;;;;;0.00;0.00;;;;;;;;;;5032558;28;20203;-69
2022/09/30 11:56:07;;;;;;;0.00;0.00;;;;;;;;;;5034500;28;20245;-69
2022/09/30 11:58:37;;;;;;;0.00;0.00;;;;;;;;;;5039607;28;20246;-70
2022/09/30 12:01:11;;;;;;;0.00;0.00;;;;;;;;;;5040425;28;20336;-70
2022/09/30 12:03:41;;;;;;;0.00;0.00;;;;;;;;;;5042081;28;20233;-69
2022/09/30 12:06:12;;;;;;;0.00;0.00;;;;;;;;;;5036005;28;20222;-70
2022/09/30 12:08:43;;;;;;;0.00;0.00;;;;;;;;;;5032803;28;20231;-69
2022/09/30 12:11:12;;;;;;;0.00;0.00;;;;;;;;;;5034695;28;20291;-70
2022/09/30 12:13:42;;;;;;;0.00;0.00;;;;;;;;;;5042690;28;20202;-70
2022/09/30 12:16:16;;;;;;;0.00;0.00;;;;;;;;;;5033818;28;20215;-69
2022/09/30 12:18:45;;;;;;;0.00;0.00;;;;;;;;;;5041107;28;20292;-67
2022/09/30 12:21:17;;;;;;;0.00;0.00;;;;;;;;;;5034881;28;20204;-67
2022/09/30 12:23:47;;;;;;;0.00;0.00;;;;;;;;;;5033038;28;20228;-71
2022/09/30 12:26:15;;;;;;;0.00;0.00;;;;;;;;;;5035628;28;20211;-67
2022/09/30 12:31:50;;;;;;;0.00;0.00;;;;;;;;;;5042671;28;20250;-70
2022/09/30 12:34:27;;;;;;;0.00;0.00;;;;;;;;;;5036064;28;20285;-68
2022/09/30 12:37:01;;;;;;;0.00;0.00;;;;;;;;;;5033973;28;20200;-67
2022/09/30 12:39:35;;;;;;;0.00;0.00;;;;;;;;;;5041891;28;20207;-66
2022/09/30 12:42:11;;;;;;;0.00;0.00;;;;;;;;;;5031561;28;20208;-67
2022/09/30 12:44:57;;;;;;;0.00;0.00;;;;;;;;;;5030505;28;20272;-68
2022/09/30 12:47:35;;;;;;;0.00;0.00;;;;;;;;;;5033402;28;20200;-68
2022/09/30 12:50:06;;;;;;;0.00;0.00;;;;;;;;;;5035325;28;20214;-68
2022/09/30 12:52:34;;;;;;;0.00;0.00;;;;;;;;;;5032357;28;20230;-69
2022/09/30 12:55:03;;;;;;;0.00;0.00;;;;;;;;;;5035112;28;20282;-69
2022/09/30 12:57:33;;;;;;;0.00;0.00;;;;;;;;;;5041221;28;20230;-69
2022/09/30 13:00:08;;;;;;;0.00;0.00;;;;;;;;;;5034784;28;20208;-70
2022/09/30 13:02:38;;;;;;;0.00;0.00;;;;;;;;;;5033576;28;20261;-69
2022/09/30 13:05:25;;;;;;;0.00;0.00;;;;;;;;;;5038058;28;20227;-70
2022/09/30 13:08:24;;;;;;;0.00;0.00;;;;;;;;;;5032225;28;20699;-70
2022/09/30 13:10:56;;;;;;;0.00;0.00;;;;;;;;;;5034002;28;20285;-70
2022/09/30 13:13:26;;;;;;;0.00;0.00;;;;;;;;;;5033616;28;20196;-70
2022/09/30 13:16:01;;;;;;;0.00;0.00;;;;;;;;;;5036656;28;20314;-68
2022/09/30 13:18:48;;;;;;;0.00;0.00;;;;;;;;;;5031480;28;20202;-67
2022/09/30 13:21:25;;;;;;;0.00;0.00;;;;;;;;;;5036448;28;20291;-69
2022/09/30 13:23:53;;;;;;;0.00;0.00;;;;;;;;;;5038145;28;20211;-70
2022/09/30 13:26:41;;;;;;;0.00;0.00;;;;;;;;;;5041945;28;20216;-69
2022/09/30 13:29:34;;;;;;;0.00;0.00;;;;;;;;;;5023976;28;20693;-71
2022/09/30 13:32:03;;;;;;;0.00;0.00;;;;;;;;;;5039171;28;20210;-69
2022/09/30 13:34:31;;;;;;;0.00;0.00;;;;;;;;;;5031529;28;20329;-68
2022/09/30 13:37:00;;;;;;;0.00;0.00;;;;;;;;;;5036175;28;20223;-68
2022/09/30 13:39:30;;;;;;;0.00;0.00;;;;;;;;;;5036030;28;20206;-69
2022/09/30 13:42:02;;;;;;;0.00;0.00;;;;;;;;;;5030331;28;20198;-69
2022/09/30 13:44:33;;;;;;;0.00;0.00;;;;;;;;;;5048303;28;20225;-67
2022/09/30 13:47:07;;;;;;;0.00;0.00;;;;;;;;;;5031994;28;20199;-69
2022/09/30 13:49:39;;;;;;;0.00;0.00;;;;;;;;;;5031536;28;20701;-67
2022/09/30 13:52:09;;;;;;;0.00;0.00;;;;;;;;;;5032255;28;20207;-68
2022/09/30 13:54:39;;;;;;;0.00;0.00;;;;;;;;;;5034841;28;20273;-68
2022/09/30 13:57:07;;;;;;;0.00;0.00;;;;;;;;;;5032686;28;20207;-69
2022/09/30 13:59:48;;;;;;;0.00;0.00;;;;;;;;;;5032084;28;20195;-68
2022/09/30 14:02:33;;;;;;;0.00;0.00;;;;;;;;;;5033268;28;20211;-68
2022/09/30 14:05:19;;;;;;;0.00;0.00;;;;;;;;;;5033459;28;20234;-68
2022/09/30 14:07:55;;;;;;;0.00;0.00;;;;;;;;;;5045331;28;20227;-68
2022/09/30 14:10:33;;;;;;;0.00;0.00;;;;;;;;;;5036506;28;20286;-68
2022/09/30 14:13:08;;;;;;;0.00;0.00;;;;;;;;;;5045363;28;20205;-68
2022/09/30 14:15:49;;;;;;;0.00;0.00;;;;;;;;;;5052014;28;20347;-70
2022/09/30 14:18:28;;;;;;;0.00;0.00;;;;;;;;;;5035046;28;20764;-69
2022/09/30 14:21:02;;;;;;;0.00;0.00;;;;;;;;;;5045106;28;20211;-67
2022/09/30 14:23:31;;;;;;;0.00;0.00;;;;;;;;;;5039317;28;20198;-68
2022/09/30 14:26:03;;;;;;;0.00;0.00;;;;;;;;;;5033171;28;20216;-69
2022/09/30 14:28:36;;;;;;;0.00;0.00;;;;;;;;;;5041113;28;20204;-67
2022/09/30 14:31:08;;;;;;;0.00;0.00;;;;;;;;;;5036692;28;20200;-67
2022/09/30 14:33:36;;;;;;;0.00;0.00;;;;;;;;;;5036313;28;20214;-69
2022/09/30 14:36:08;;;;;;;0.00;0.00;;;;;;;;;;5037424;28;20311;-67
2022/09/30 14:38:37;;;;;;;0.00;0.00;;;;;;;;;;5038074;28;20336;-68
2022/09/30 14:41:08;;;;;;;0.00;0.00;;;;;;;;;;5041009;28;20245;-68
2022/09/30 14:43:39;;;;;;;0.00;0.00;;;;;;;;;;5043155;28;20232;-68
2022/09/30 14:46:07;;;;;;;0.00;0.00;;;;;;;;;;5038492;28;20261;-68
2022/09/30 14:48:37;;;;;;;0.00;0.00;;;;;;;;;;5034626;28;20188;-67
2022/09/30 14:51:06;;;;;;;0.00;0.00;;;;;;;;;;5043400;28;20224;-69
2022/09/30 14:53:34;;;;;;;0.00;0.00;;;;;;;;;;5037363;28;20207;-69